Wellington, CO

9:23 AM MDT on May 27, 2017 (GMT -0600)
Wellington | | Change Station
Active Advisory: Flood Advisory Active Notice: Flood Advisory

Elev 5098 ft 40.71 °N, 105.01 °W | Updated 23 seconds ago

Overcast
Overcast
55.2 °F
Feels Like 55.2 °F
N
1.7
Wind Variable Wind from West

Today
High -- | Low -- °F
--% Chance of Precip.
Yesterday
High -- | Low -- °F
Precip. -- in
Pressure 30.03 in
Visibility 10.0 miles
Clouds Scattered Clouds 5500 ft
Overcast 6500 ft
Dew Point 44 °F
Humidity 65%
Rainfall 0.02 in
Snow Depth Not available.
5:33 AM 8:21 PM
Waxing Crescent, 5% visible
METAR KFNL 271456Z AUTO 04003KT 10SM -RA SCT055 OVC065 10/07 A3011 RMK AO2 SLP167 P0000 60002 T01000072 53017
Pressure 30.03 in
Visibility 10.0 miles
Clouds Scattered Clouds 5500 ft
Overcast 6500 ft
Dew Point 44 °F
Humidity 65%
Rainfall 0.02 in
Snow Depth Not available.
5:33 AM 8:21 PM
Waxing Crescent, 5% visible
METAR KFNL 271456Z AUTO 04003KT 10SM -RA SCT055 OVC065 10/07 A3011 RMK AO2 SLP167 P0000 60002 T01000072 53017

Get Your Daily Forecast Email!

Thanks for signing up!

Be on the lookout for a verification email in your inbox.

You'll start receiving severe weather alerts in your inbox..

×

10-Day Weather Forecast

Almanac

Astronomy

May. 27, 2017 Rise Set
Actual Time
Civil Twilight
Nautical Twilight
Astronomical Twilight
Moon
Length of Visible Light
Length of Day
Tomorrow will be .
, % of the Moon is Illuminated

Today's Extremes

State Highs State Lows

Community

WunderPhotos

Category 6

Welcome to Category 6. This is the collective home for Weather Underground's featured writeups by Dr. Jeff Masters (right), Bob Henson (left), Chris Burt, and other regular contributors.

Nearby

Air Quality

  Air Quality AQ Index Pollutant
Not available.

Snow Depth

Station Depth Elevation

Earthquake Activity

City Distance Mag. Time & Date
Minimum magnitude displayed is 2.5.

Coastal Water Temperatures

Place Temperature

Stations

Nearby Weather Stations

Station Location Temp. Windchill Dew Point Humidity Wind Precip. Elev Updated Type
                   

Watches & Warnings

Flood Advisory
Issued: 5:33 AM MDT May. 27, 2017 – National Weather Service

The flood advisory continues for
the Cache la poudre river near Greeley.
* Until Sunday evening.
* At 4:30 am Saturday the stage was 7.3 feet.
* Flood stage is 8.0 feet.
* Forecast... the river will crest near 7.3 feet this morning.
* Impact... at 7.5 feet... sections of the poudre river trail begin to
overtop from Windsor to Greeley.


Lat... Lon 4047 10495 4046 10474 4043 10459 4040 10462
4043 10474 4043 10488